Howes Cave, New York
Current Conditions -  °F | °C
As of 10:15 PM on Monday 20 Oct 2014 (Local Time) from KNY0 Reporting Station
Scattered Clouds Scattered Clouds  
Wind Chill: 40°   Ceiling: Unl
Heat Index: 43°   Visibility: 10mi
Dew Point: 34°   Wind: 5mph
Humidity: 71%   Direction: 100°E
Pressure: 29.93"   Gusts: NA
Location:  42.69°N, 74.38°W
Report Text: KNY0 210215Z AUTO 10004KT 10SM SCT085 06/01 A2993 RMK AO2 T00610012
Loading
Personal Weather Stations






























Interactive Weather Map
Tropical Storm Tracking
New forecast layout! Learn more

10-Day Weather Forecast

Advertisements
Track Severe Weather on mobile